Time;durP1;ratioP1;P1;durP2;ratioP2;P2;SDS_P1;SDS_P2;PMS_P1;PMS_P2;Temp;Humidity;BMP_temperature;BMP_pressure;BME280_temperature;BME280_humidity;BME280_pressure;Samples;Min_cycle;Max_cycle;Signal;HPM_P1;HPM_P2
2022/04/23 00:01:27;;;;;;;4.58;3.83;;;;;;;;;;787479;75;26245;-68
2022/04/23 00:04:16;;;;;;;4.05;3.65;;;;;;;;;;775545;76;26156;-67
2022/04/23 00:05:20;;;;;;;5.25;3.42;;;;;;;;;;778264;76;26249;-68
2022/04/23 00:06:25;;;;;;;4.72;3.70;;;;;;;;;;789897;75;26664;-68
2022/04/23 00:07:34;;;;;;;5.35;3.70;;;;;;;;;;789874;75;26308;-68
2022/04/23 00:08:37;;;;;;;5.90;3.70;;;;;;;;;;789931;75;26695;-67
2022/04/23 00:13:29;;;;;;;5.17;3.77;;;;;;;;;;745654;79;26226;-67
2022/04/23 00:14:35;;;;;;;4.20;3.80;;;;;;;;;;744447;79;26344;-68
2022/04/23 00:15:43;;;;;;;4.05;3.65;;;;;;;;;;744423;79;26266;-68
2022/04/23 00:16:46;;;;;;;4.83;3.37;;;;;;;;;;732572;79;26353;-68
2022/04/23 00:17:49;;;;;;;3.75;3.45;;;;;;;;;;750694;79;26338;-69
2022/04/23 00:18:52;;;;;;;3.60;3.33;;;;;;;;;;750620;79;26310;-68
2022/04/23 00:27:33;;;;;;;4.55;3.65;;;;;;;;;;794370;74;26641;-68
2022/04/23 00:28:39;;;;;;;3.85;3.33;;;;;;;;;;808792;73;26219;-68
2022/04/23 00:32:04;;;;;;;4.60;3.47;;;;;;;;;;794425;74;26143;-68
2022/04/23 00:33:09;;;;;;;4.08;3.45;;;;;;;;;;798093;74;26212;-67
2022/04/23 00:34:16;;;;;;;3.77;3.42;;;;;;;;;;798924;74;26311;-69
2022/04/23 00:35:20;;;;;;;4.10;3.50;;;;;;;;;;798505;74;26318;-71
2022/04/23 00:36:28;;;;;;;4.70;3.72;;;;;;;;;;798749;74;26271;-68
2022/04/23 00:37:39;;;;;;;4.33;3.92;;;;;;;;;;798730;74;26224;-67
2022/04/23 00:38:49;;;;;;;4.92;3.67;;;;;;;;;;798648;74;26228;-68
2022/04/23 00:41:59;;;;;;;4.70;3.30;;;;;;;;;;783007;73;26269;-70
2022/04/23 00:43:05;;;;;;;3.90;3.60;;;;;;;;;;783046;76;26300;-69
2022/04/23 00:44:07;;;;;;;3.65;3.35;;;;;;;;;;782304;75;26250;-67
2022/04/23 00:45:12;;;;;;;4.33;3.35;;;;;;;;;;782492;76;26238;-68
2022/04/23 00:46:15;;;;;;;4.20;3.90;;;;;;;;;;782483;76;26253;-69
2022/04/23 00:47:21;;;;;;;3.62;3.20;;;;;;;;;;782612;76;26242;-69
2022/04/23 00:48:24;;;;;;;3.83;3.25;;;;;;;;;;782450;76;26735;-67
2022/04/23 00:51:42;;;;;;;4.10;3.67;;;;;;;;;;783004;76;26633;-68
2022/04/23 00:52:48;;;;;;;3.65;3.35;;;;;;;;;;736067;80;26269;-67
2022/04/23 00:53:51;;;;;;;4.55;3.40;;;;;;;;;;757441;78;26265;-68
2022/04/23 00:54:53;;;;;;;3.75;3.30;;;;;;;;;;745837;79;26256;-68
2022/04/23 00:55:58;;;;;;;5.53;3.70;;;;;;;;;;746757;79;26697;-69
2022/04/23 00:57:04;;;;;;;5.00;3.47;;;;;;;;;;744208;79;26350;-68
2022/04/23 00:58:10;;;;;;;7.75;3.80;;;;;;;;;;754753;78;26267;-69
2022/04/23 01:02:44;;;;;;;4.87;3.42;;;;;;;;;;802485;73;26258;-68
2022/04/23 01:03:47;;;;;;;6.03;3.98;;;;;;;;;;803641;74;26231;-67
2022/04/23 01:04:53;;;;;;;4.45;3.65;;;;;;;;;;803610;74;26305;-68
2022/04/23 01:05:56;;;;;;;3.72;3.42;;;;;;;;;;803616;74;26292;-69
2022/04/23 01:06:59;;;;;;;6.37;3.85;;;;;;;;;;803577;74;26288;-68
2022/04/23 01:08:04;;;;;;;4.60;3.40;;;;;;;;;;803573;74;26327;-68
2022/04/23 01:17:11;;;;;;;3.35;2.92;;;;;;;;;;802265;73;26222;-68
2022/04/23 01:18:16;;;;;;;3.77;3.47;;;;;;;;;;798273;74;26241;-68
2022/04/23 01:21:21;;;;;;;3.50;3.20;;;;;;;;;;798522;74;26575;-68
2022/04/23 01:22:24;;;;;;;3.52;3.22;;;;;;;;;;746352;78;26266;-68
2022/04/23 01:23:29;;;;;;;5.37;3.50;;;;;;;;;;759187;78;26261;-68
2022/04/23 01:24:34;;;;;;;5.53;3.60;;;;;;;;;;759402;78;26261;-68
2022/04/23 01:25:37;;;;;;;5.92;3.90;;;;;;;;;;760361;78;26323;-68
2022/04/23 01:26:40;;;;;;;3.65;3.35;;;;;;;;;;763624;77;26259;-68
2022/04/23 01:27:45;;;;;;;6.03;3.87;;;;;;;;;;763713;77;26329;-68
2022/04/23 01:35:21;;;;;;;5.58;3.75;;;;;;;;;;783052;75;26314;-68
2022/04/23 01:36:24;;;;;;;4.60;3.95;;;;;;;;;;784631;75;26252;-69
2022/04/23 01:37:27;;;;;;;7.50;3.52;;;;;;;;;;784695;75;26310;-67
2022/04/23 01:38:30;;;;;;;8.53;4.00;;;;;;;;;;784620;75;26256;-67
2022/04/23 01:42:50;;;;;;;8.25;3.55;;;;;;;;;;767689;76;26676;-69
2022/04/23 01:43:53;;;;;;;5.55;3.80;;;;;;;;;;767112;77;26322;-68
2022/04/23 01:44:56;;;;;;;7.17;3.95;;;;;;;;;;763439;77;26753;-68
2022/04/23 01:45:59;;;;;;;7.25;3.30;;;;;;;;;;763371;77;26318;-71
2022/04/23 01:47:02;;;;;;;5.40;3.30;;;;;;;;;;763461;77;26248;-68
2022/04/23 01:48:04;;;;;;;3.62;3.25;;;;;;;;;;763687;77;26248;-68
2022/04/23 01:51:22;;;;;;;4.65;3.65;;;;;;;;;;764689;77;26173;-68
2022/04/23 01:52:28;;;;;;;6.28;4.00;;;;;;;;;;768599;77;26254;-68
2022/04/23 01:53:31;;;;;;;8.15;3.60;;;;;;;;;;767601;77;26703;-68
2022/04/23 01:54:35;;;;;;;5.47;3.72;;;;;;;;;;767673;77;26715;-68
2022/04/23 02:05:20;;;;;;;5.08;3.35;;;;;;;;;;775067;76;26261;-69
2022/04/23 02:06:23;;;;;;;3.85;3.37;;;;;;;;;;776335;76;26379;-68
2022/04/23 02:07:26;;;;;;;4.80;3.58;;;;;;;;;;776484;76;26733;-67
2022/04/23 02:11:52;;;;;;;5.10;3.83;;;;;;;;;;769078;76;26239;-68
2022/04/23 02:12:54;;;;;;;5.15;3.95;;;;;;;;;;774816;76;26249;-67
2022/04/23 02:13:58;;;;;;;4.03;3.55;;;;;;;;;;775005;76;26317;-67
2022/04/23 02:15:01;;;;;;;4.85;4.30;;;;;;;;;;774808;76;26241;-68
2022/04/23 02:16:05;;;;;;;4.10;3.70;;;;;;;;;;774880;76;26225;-68
2022/04/23 02:17:09;;;;;;;5.70;4.28;;;;;;;;;;774814;76;26237;-68
2022/04/23 02:18:14;;;;;;;5.67;3.75;;;;;;;;;;774822;76;26292;-68
2022/04/23 02:21:13;;;;;;;8.50;3.62;;;;;;;;;;773255;75;26202;-67
2022/04/23 02:22:16;;;;;;;5.58;3.45;;;;;;;;;;774827;76;26318;-68
2022/04/23 02:23:19;;;;;;;4.30;3.80;;;;;;;;;;775566;76;26693;-67
2022/04/23 02:24:22;;;;;;;6.75;4.70;;;;;;;;;;775691;76;26303;-68
2022/04/23 02:25:25;;;;;;;7.75;3.70;;;;;;;;;;775728;76;26310;-68
2022/04/23 02:26:27;;;;;;;4.50;3.70;;;;;;;;;;775621;76;26303;-66
2022/04/23 02:27:32;;;;;;;4.90;3.92;;;;;;;;;;775583;76;26249;-67
2022/04/23 02:32:29;;;;;;;8.75;3.62;;;;;;;;;;738014;79;26239;-68
2022/04/23 02:33:32;;;;;;;5.78;3.37;;;;;;;;;;734392;81;26270;-68
2022/04/23 02:34:35;;;;;;;3.77;3.47;;;;;;;;;;734483;81;26315;-68
2022/04/23 02:35:39;;;;;;;3.92;3.62;;;;;;;;;;734521;81;26730;-67
2022/04/23 02:36:43;;;;;;;7.37;3.65;;;;;;;;;;733978;81;26266;-67
2022/04/23 02:37:48;;;;;;;4.67;3.83;;;;;;;;;;734538;81;26262;-68
2022/04/23 02:51:42;;;;;;;6.67;4.30;;;;;;;;;;794474;74;26187;-69
2022/04/23 02:52:45;;;;;;;5.95;4.42;;;;;;;;;;796199;74;26238;-68
2022/04/23 02:53:48;;;;;;;4.65;4.20;;;;;;;;;;796033;74;26238;-68
2022/04/23 02:54:50;;;;;;;6.97;5.12;;;;;;;;;;795619;74;26239;-70
2022/04/23 02:55:56;;;;;;;4.55;4.15;;;;;;;;;;795281;74;26303;-68
2022/04/23 02:57:00;;;;;;;4.33;3.98;;;;;;;;;;795579;74;26749;-69
2022/04/23 02:58:04;;;;;;;4.90;4.40;;;;;;;;;;795645;74;26340;-70
2022/04/23 03:04:39;;;;;;;4.62;4.22;;;;;;;;;;787242;74;26336;-68
2022/04/23 03:05:42;;;;;;;4.75;3.80;;;;;;;;;;791497;74;26252;-68
2022/04/23 03:06:46;;;;;;;4.92;4.37;;;;;;;;;;792523;75;26245;-69
2022/04/23 03:07:50;;;;;;;6.72;4.35;;;;;;;;;;792629;75;26654;-68
2022/04/23 03:11:15;;;;;;;6.55;4.05;;;;;;;;;;792893;75;26169;-68
2022/04/23 03:12:18;;;;;;;5.08;4.67;;;;;;;;;;765936;75;26242;-68
2022/04/23 03:13:23;;;;;;;4.53;4.00;;;;;;;;;;764771;77;26253;-68
2022/04/23 03:14:27;;;;;;;5.08;4.47;;;;;;;;;;764781;76;26288;-68
2022/04/23 03:15:30;;;;;;;6.42;4.70;;;;;;;;;;764613;77;26339;-69
2022/04/23 03:16:53;;;;;;;5.05;4.60;;;;;;;;;;764926;77;26226;-71
2022/04/23 03:24:10;;;;;;;6.40;4.70;;;;;;;;;;794319;74;26299;-67
2022/04/23 03:25:13;;;;;;;4.42;4.12;;;;;;;;;;795005;75;26250;-67
2022/04/23 03:26:16;;;;;;;5.33;4.53;;;;;;;;;;794700;75;26308;-69
2022/04/23 03:27:18;;;;;;;6.30;4.40;;;;;;;;;;794445;75;26239;-67
2022/04/23 03:36:39;;;;;;;10.25;4.78;;;;;;;;;;765522;77;26192;-68
2022/04/23 03:37:42;;;;;;;4.67;4.28;;;;;;;;;;766432;77;26257;-68
2022/04/23 03:40:36;;;;;;;16.15;10.38;;;;;;;;;;820536;72;26231;-68
2022/04/23 03:41:39;;;;;;;19.65;16.07;;;;;;;;;;821980;72;26289;-67
2022/04/23 03:42:48;;;;;;;14.07;10.80;;;;;;;;;;825539;70;26785;-67
2022/04/23 03:43:47;;;;;;;7.15;6.47;;;;;;;;;;838585;70;26222;-69
2022/04/23 03:44:49;;;;;;;6.17;5.28;;;;;;;;;;839448;70;26287;-68
2022/04/23 03:45:53;;;;;;;5.12;4.65;;;;;;;;;;838286;70;26276;-68
2022/04/23 03:46:56;;;;;;;5.05;4.47;;;;;;;;;;829570;71;26265;-67
2022/04/23 03:51:23;;;;;;;5.35;4.90;;;;;;;;;;778313;74;26730;-67
2022/04/23 03:52:26;;;;;;;6.22;4.92;;;;;;;;;;778762;76;26776;-68
2022/04/23 03:53:29;;;;;;;7.25;5.45;;;;;;;;;;779214;76;26860;-67
2022/04/23 03:54:32;;;;;;;7.70;4.85;;;;;;;;;;779283;76;26358;-69
2022/04/23 03:55:34;;;;;;;5.90;5.40;;;;;;;;;;779255;76;26802;-68
2022/04/23 03:56:37;;;;;;;5.72;5.12;;;;;;;;;;779254;76;26803;-67
2022/04/23 03:57:44;;;;;;;5.28;4.78;;;;;;;;;;779228;76;26260;-68
2022/04/23 04:00:44;;;;;;;5.22;4.65;;;;;;;;;;776170;75;26757;-67
2022/04/23 04:01:47;;;;;;;5.17;4.67;;;;;;;;;;779135;76;26741;-67
2022/04/23 04:02:51;;;;;;;4.60;4.30;;;;;;;;;;779206;76;26268;-67
2022/04/23 04:03:55;;;;;;;5.87;4.60;;;;;;;;;;779294;76;26253;-67
2022/04/23 04:04:58;;;;;;;5.60;5.00;;;;;;;;;;779208;76;26252;-67
2022/04/23 04:06:01;;;;;;;9.50;4.87;;;;;;;;;;779159;76;26257;-67
2022/04/23 04:07:05;;;;;;;5.70;4.95;;;;;;;;;;779116;76;26821;-67
2022/04/23 04:10:24;;;;;;;6.72;4.25;;;;;;;;;;779382;76;26646;-69
2022/04/23 04:12:00;;;;;;;5.58;4.50;;;;;;;;;;769225;77;26254;-69
2022/04/23 04:12:31;;;;;;;5.97;4.55;;;;;;;;;;769247;77;26696;-69
2022/04/23 04:13:35;;;;;;;5.85;4.67;;;;;;;;;;769360;77;26251;-68
2022/04/23 04:14:37;;;;;;;4.90;4.42;;;;;;;;;;775679;76;26223;-66
2022/04/23 04:15:45;;;;;;;8.30;4.42;;;;;;;;;;780767;76;26231;-67
2022/04/23 04:16:49;;;;;;;4.65;4.25;;;;;;;;;;777797;76;26692;-68
2022/04/23 04:24:20;;;;;;;6.40;4.28;;;;;;;;;;784427;74;26111;-67
2022/04/23 04:25:24;;;;;;;4.72;4.30;;;;;;;;;;788391;74;26246;-68
2022/04/23 04:26:27;;;;;;;6.35;4.90;;;;;;;;;;786165;75;26226;-68
2022/04/23 04:27:30;;;;;;;6.20;4.62;;;;;;;;;;776963;76;26281;-67
2022/04/23 04:31:53;;;;;;;5.47;4.97;;;;;;;;;;744594;79;26345;-68
2022/04/23 04:32:52;;;;;;;6.50;4.95;;;;;;;;;;743289;79;26336;-66
2022/04/23 04:33:55;;;;;;;5.25;4.72;;;;;;;;;;743952;80;26359;-67
2022/04/23 04:34:58;;;;;;;5.22;4.72;;;;;;;;;;743963;80;26390;-67
2022/04/23 04:36:01;;;;;;;5.80;4.78;;;;;;;;;;744046;80;26771;-70
2022/04/23 04:37:05;;;;;;;6.70;4.75;;;;;;;;;;743874;80;26271;-67
2022/04/23 04:40:05;;;;;;;5.83;4.45;;;;;;;;;;756307;78;26433;-68
2022/04/23 04:41:08;;;;;;;5.55;4.85;;;;;;;;;;756582;78;26269;-68
2022/04/23 04:42:12;;;;;;;9.58;4.45;;;;;;;;;;756546;78;26342;-68
2022/04/23 04:43:23;;;;;;;5.47;5.00;;;;;;;;;;755386;78;26820;-68
2022/04/23 04:44:38;;;;;;;7.35;5.00;;;;;;;;;;755438;78;26331;-68
2022/04/23 04:45:44;;;;;;;8.68;6.55;;;;;;;;;;755378;78;26385;-67
2022/04/23 04:46:51;;;;;;;11.00;8.50;;;;;;;;;;755945;78;26273;-67
2022/04/23 04:50:10;;;;;;;10.05;8.08;;;;;;;;;;757005;78;26213;-67
2022/04/23 04:51:16;;;;;;;8.15;5.85;;;;;;;;;;773112;76;26241;-66
2022/04/23 04:52:36;;;;;;;5.53;5.03;;;;;;;;;;773012;77;26247;-68
2022/04/23 04:53:42;;;;;;;5.97;5.37;;;;;;;;;;772954;77;26677;-68
2022/04/23 04:54:45;;;;;;;8.28;4.90;;;;;;;;;;773100;77;26706;-68
2022/04/23 04:55:49;;;;;;;7.53;5.65;;;;;;;;;;773061;77;26248;-68
2022/04/23 04:56:59;;;;;;;5.72;4.87;;;;;;;;;;773762;77;26244;-68
2022/04/23 04:58:02;;;;;;;5.50;4.83;;;;;;;;;;773686;77;26779;-69
2022/04/23 04:59:05;;;;;;;7.55;5.72;;;;;;;;;;773954;77;26298;-69
2022/04/23 05:00:10;;;;;;;10.25;6.40;;;;;;;;;;773751;77;26298;-69
2022/04/23 05:01:15;;;;;;;6.60;5.80;;;;;;;;;;774131;77;26311;-68
2022/04/23 05:02:21;;;;;;;6.42;5.80;;;;;;;;;;773945;77;26314;-70
2022/04/23 05:05:44;;;;;;;7.08;6.37;;;;;;;;;;776687;76;26224;-68
2022/04/23 05:06:49;;;;;;;7.00;6.30;;;;;;;;;;761336;77;26326;-68
2022/04/23 05:11:10;;;;;;;9.50;5.58;;;;;;;;;;761415;76;26204;-68
2022/04/23 05:12:13;;;;;;;7.87;5.78;;;;;;;;;;760753;78;26302;-66
2022/04/23 05:13:15;;;;;;;8.20;5.80;;;;;;;;;;760684;78;26251;-69
2022/04/23 05:14:19;;;;;;;7.60;5.50;;;;;;;;;;760609;78;26243;-67
2022/04/23 05:15:22;;;;;;;5.42;4.90;;;;;;;;;;760633;78;26689;-67
2022/04/23 05:16:25;;;;;;;6.58;5.40;;;;;;;;;;760647;78;26679;-67
2022/04/23 05:19:48;;;;;;;6.97;5.50;;;;;;;;;;738994;79;26425;-68
2022/04/23 05:20:53;;;;;;;6.85;5.80;;;;;;;;;;739865;78;26292;-67
2022/04/23 05:21:56;;;;;;;8.05;6.20;;;;;;;;;;737832;80;26332;-68
2022/04/23 05:22:59;;;;;;;8.53;6.08;;;;;;;;;;739423;77;26281;-71
2022/04/23 05:24:01;;;;;;;7.05;6.17;;;;;;;;;;763119;78;26325;-71
2022/04/23 05:25:09;;;;;;;7.33;5.55;;;;;;;;;;762745;78;26775;-68
2022/04/23 05:26:32;;;;;;;9.48;6.45;;;;;;;;;;758556;78;26259;-68
2022/04/23 05:27:55;;;;;;;7.05;5.67;;;;;;;;;;759679;78;26263;-69
2022/04/23 05:29:07;;;;;;;7.97;6.20;;;;;;;;;;762759;78;26328;-68
2022/04/23 05:30:15;;;;;;;8.23;6.45;;;;;;;;;;762795;78;26769;-69
2022/04/23 05:31:21;;;;;;;6.25;5.53;;;;;;;;;;762771;78;26263;-68
2022/04/23 05:32:28;;;;;;;6.08;5.47;;;;;;;;;;762842;78;26259;-70
2022/04/23 05:33:35;;;;;;;7.33;6.15;;;;;;;;;;761814;78;26271;-68
2022/04/23 05:34:42;;;;;;;8.83;6.28;;;;;;;;;;762772;78;26320;-68
2022/04/23 05:35:55;;;;;;;7.80;6.15;;;;;;;;;;762763;78;26255;-67
2022/04/23 05:40:37;;;;;;;6.72;6.03;;;;;;;;;;807313;73;26627;-70
2022/04/23 05:41:42;;;;;;;7.42;5.80;;;;;;;;;;807396;73;26326;-71
2022/04/23 05:42:48;;;;;;;6.30;5.70;;;;;;;;;;807263;73;26678;-74
2022/04/23 05:43:53;;;;;;;7.60;5.87;;;;;;;;;;807321;73;26386;-70
2022/04/23 05:44:56;;;;;;;6.22;5.62;;;;;;;;;;807129;73;26233;-70
2022/04/23 05:46:02;;;;;;;8.55;6.10;;;;;;;;;;807177;73;26744;-71
2022/04/23 05:47:07;;;;;;;7.22;5.70;;;;;;;;;;807237;73;26288;-71
2022/04/23 05:48:13;;;;;;;7.75;5.80;;;;;;;;;;807623;73;26366;-72
2022/04/23 05:49:18;;;;;;;7.85;5.92;;;;;;;;;;807250;73;26672;-73
2022/04/23 05:53:54;;;;;;;13.05;6.22;;;;;;;;;;786487;74;26220;-71
2022/04/23 05:55:02;;;;;;;6.58;5.70;;;;;;;;;;786564;74;26245;-72
2022/04/23 05:59:44;;;;;;;9.13;8.20;;;;;;;;;;788009;74;26719;-73
2022/04/23 06:00:50;;;;;;;12.18;9.70;;;;;;;;;;787796;75;26298;-70
2022/04/23 06:01:56;;;;;;;11.90;8.88;;;;;;;;;;787872;75;26691;-70
2022/04/23 06:03:01;;;;;;;10.65;6.30;;;;;;;;;;787771;75;26248;-69
2022/04/23 06:04:11;;;;;;;7.62;5.85;;;;;;;;;;787778;75;26612;-71
2022/04/23 06:05:13;;;;;;;6.08;5.50;;;;;;;;;;787656;75;26333;-69
2022/04/23 06:06:19;;;;;;;7.62;5.72;;;;;;;;;;787752;75;26728;-69
2022/04/23 06:08:00;;;;;;;7.25;5.78;;;;;;;;;;775240;76;26335;-70
2022/04/23 06:09:12;;;;;;;6.20;5.55;;;;;;;;;;757951;78;26245;-68
2022/04/23 06:10:17;;;;;;;9.05;6.15;;;;;;;;;;757095;78;26233;-69
2022/04/23 06:11:22;;;;;;;5.92;5.40;;;;;;;;;;756839;78;26245;-72
2022/04/23 06:12:25;;;;;;;7.80;5.85;;;;;;;;;;756970;78;26246;-71
2022/04/23 06:13:28;;;;;;;6.20;5.60;;;;;;;;;;756965;78;26339;-70
2022/04/23 06:14:30;;;;;;;6.42;5.78;;;;;;;;;;756945;78;26249;-70
2022/04/23 06:19:02;;;;;;;6.22;5.62;;;;;;;;;;789051;74;26667;-71
2022/04/23 06:20:05;;;;;;;6.20;5.60;;;;;;;;;;790107;75;26261;-72
2022/04/23 06:21:09;;;;;;;5.78;5.22;;;;;;;;;;774914;76;26649;-72
2022/04/23 06:22:12;;;;;;;6.75;5.25;;;;;;;;;;774829;76;26338;-70
2022/04/23 06:23:15;;;;;;;6.75;5.40;;;;;;;;;;774770;76;26300;-70
2022/04/23 06:24:17;;;;;;;7.50;5.83;;;;;;;;;;774844;76;26261;-69
2022/04/23 06:25:20;;;;;;;7.67;6.40;;;;;;;;;;774817;76;26707;-70
2022/04/23 06:29:40;;;;;;;7.15;6.55;;;;;;;;;;782605;75;26702;-70
2022/04/23 06:30:43;;;;;;;6.50;5.90;;;;;;;;;;786559;73;26325;-73
2022/04/23 06:31:46;;;;;;;6.65;5.62;;;;;;;;;;806566;73;26291;-71
2022/04/23 06:32:50;;;;;;;7.03;5.90;;;;;;;;;;803012;73;26237;-69
2022/04/23 06:33:52;;;;;;;7.10;5.08;;;;;;;;;;795961;74;26236;-72
2022/04/23 06:40:23;;;;;;;12.43;11.12;;;;;;;;;;782476;74;26204;-70
2022/04/23 06:41:27;;;;;;;11.03;9.38;;;;;;;;;;774952;76;26277;-71
2022/04/23 06:42:30;;;;;;;11.95;8.75;;;;;;;;;;774047;76;26244;-71
2022/04/23 06:43:33;;;;;;;9.83;8.25;;;;;;;;;;774548;76;26240;-70
2022/04/23 06:48:41;;;;;;;8.03;7.33;;;;;;;;;;773453;75;26223;-72
2022/04/23 06:49:50;;;;;;;6.63;5.40;;;;;;;;;;785721;74;26586;-70
2022/04/23 06:50:53;;;;;;;6.50;5.50;;;;;;;;;;794042;74;26471;-72
2022/04/23 06:52:03;;;;;;;6.17;5.57;;;;;;;;;;792356;74;26344;-74
2022/04/23 06:53:07;;;;;;;6.90;5.60;;;;;;;;;;788959;75;26913;-72
2022/04/23 06:54:10;;;;;;;5.93;5.43;;;;;;;;;;789095;75;26850;-72
2022/04/23 06:58:54;;;;;;;5.77;5.03;;;;;;;;;;758368;78;26664;-70
2022/04/23 06:59:58;;;;;;;5.47;4.93;;;;;;;;;;748563;78;26550;-71
2022/04/23 07:01:02;;;;;;;5.73;5.13;;;;;;;;;;761252;78;26834;-70
2022/04/23 07:02:05;;;;;;;5.80;4.40;;;;;;;;;;759168;78;26354;-71
2022/04/23 07:03:10;;;;;;;5.30;4.80;;;;;;;;;;759166;78;26480;-71
2022/04/23 07:04:13;;;;;;;6.23;4.90;;;;;;;;;;759146;78;26987;-71
2022/04/23 07:08:57;;;;;;;5.93;4.93;;;;;;;;;;788115;74;26459;-70
2022/04/23 07:10:01;;;;;;;6.40;5.80;;;;;;;;;;788595;75;26412;-71
2022/04/23 07:11:08;;;;;;;7.50;5.73;;;;;;;;;;788563;75;26463;-71
2022/04/23 07:12:13;;;;;;;6.37;5.87;;;;;;;;;;788559;75;26418;-71
2022/04/23 07:13:16;;;;;;;5.60;5.20;;;;;;;;;;788539;75;26421;-70
2022/04/23 07:14:23;;;;;;;5.53;5.00;;;;;;;;;;788542;75;26526;-70
2022/04/23 07:19:00;;;;;;;5.93;5.43;;;;;;;;;;768822;76;26956;-72
2022/04/23 07:20:03;;;;;;;5.63;5.13;;;;;;;;;;790615;72;26572;-71
2022/04/23 07:21:11;;;;;;;8.10;5.03;;;;;;;;;;790371;75;26587;-70
2022/04/23 07:22:16;;;;;;;7.33;5.40;;;;;;;;;;790393;75;26655;-71
2022/04/23 07:26:49;;;;;;;5.20;4.63;;;;;;;;;;802973;72;26643;-72
2022/04/23 07:27:52;;;;;;;6.80;5.00;;;;;;;;;;774929;76;27112;-74
2022/04/23 07:29:00;;;;;;;5.40;4.90;;;;;;;;;;791509;75;26715;-71
2022/04/23 07:30:07;;;;;;;7.23;4.87;;;;;;;;;;794253;74;27120;-70
2022/04/23 07:31:10;;;;;;;6.17;5.30;;;;;;;;;;791880;75;27082;-70
2022/04/23 07:32:15;;;;;;;6.30;5.70;;;;;;;;;;775008;76;26692;-71
2022/04/23 07:39:47;;;;;;;4.53;4.03;;;;;;;;;;801029;73;27053;-71
2022/04/23 07:40:52;;;;;;;4.40;4.10;;;;;;;;;;803422;74;27120;-72
2022/04/23 07:41:55;;;;;;;7.40;5.17;;;;;;;;;;804225;74;26703;-73
2022/04/23 07:42:59;;;;;;;5.50;4.80;;;;;;;;;;803931;73;26676;-70
2022/04/23 07:44:01;;;;;;;5.47;5.00;;;;;;;;;;803414;74;26822;-72
2022/04/23 07:47:11;;;;;;;5.70;5.20;;;;;;;;;;760337;77;26758;-72
2022/04/23 07:48:15;;;;;;;6.60;6.00;;;;;;;;;;762948;76;27209;-70
2022/04/23 07:49:18;;;;;;;8.80;6.33;;;;;;;;;;763047;78;26946;-70
2022/04/23 07:50:23;;;;;;;5.93;5.00;;;;;;;;;;762858;77;26779;-71
2022/04/23 07:51:27;;;;;;;5.27;4.77;;;;;;;;;;774749;76;26656;-71
2022/04/23 07:52:35;;;;;;;8.27;4.90;;;;;;;;;;773957;75;26862;-71
2022/04/23 07:53:38;;;;;;;4.97;4.47;;;;;;;;;;762691;78;26871;-71
2022/04/23 07:56:27;;;;;;;5.57;5.07;;;;;;;;;;749983;79;26804;-70
2022/04/23 07:57:32;;;;;;;5.33;4.80;;;;;;;-146.52;100.00;123554.02;751108;78;26784;-70
2022/04/23 07:58:41;;;;;;;4.27;3.90;;;;;;;;;;761408;77;26759;-71
2022/04/23 07:59:45;;;;;;;4.73;4.33;;;;;;;-146.52;100.00;123554.02;766398;77;27215;-71
2022/04/23 08:00:48;;;;;;;4.03;3.73;;;;;;;;;;766492;77;27155;-71
2022/04/23 08:01:51;;;;;;;5.20;4.70;;;;;;;;;;766322;77;26841;-71
2022/04/23 08:02:56;;;;;;;7.07;4.03;;;;;;;;;;766388;77;27464;-69
2022/04/23 08:04:02;;;;;;;5.27;4.03;;;;;;;;;;766373;77;26715;-72
2022/04/23 08:05:17;;;;;;;3.97;3.67;;;;;;;;;;766333;77;27092;-71
2022/04/23 08:06:23;;;;;;;4.13;3.67;;;;;;;;;;766468;77;27121;-72
2022/04/23 08:07:35;;;;;;;6.60;4.03;;;;;;;;;;766041;77;26655;-70
2022/04/23 08:08:43;;;;;;;4.73;4.30;;;;;;;;;;766329;77;26742;-72
2022/04/23 08:10:03;;;;;;;4.23;3.90;;;;;;;;;;770752;76;26788;-75
2022/04/23 08:11:24;;;;;;;4.30;3.90;;;;;;;;;;735981;80;26779;-73
2022/04/23 08:12:28;;;;;;;5.73;4.57;;;;;;;;;;732451;80;26525;-74
2022/04/23 08:13:32;;;;;;;6.37;4.20;;;;;;;;;;736886;80;26669;-74
2022/04/23 08:14:37;;;;;;;4.63;4.13;;;;;;;;;;737968;80;26586;-73
2022/04/23 08:15:42;;;;;;;5.43;4.03;;;;;;;;;;737445;79;26541;-74
2022/04/23 08:16:48;;;;;;;4.60;4.20;;;;;;;;;;737108;80;26538;-74
2022/04/23 08:17:51;;;;;;;5.83;4.50;;;;;;;;;;737067;80;26639;-74
2022/04/23 08:18:54;;;;;;;4.60;4.20;;;;;;;;;;737082;80;26633;-75
2022/04/23 08:20:00;;;;;;;5.33;4.83;;;;;;;;;;737158;80;26479;-73
2022/04/23 08:21:03;;;;;;;4.30;4.00;;;;;;;;;;737146;80;27013;-73
2022/04/23 08:22:06;;;;;;;4.80;4.30;;;;;;;;;;737258;80;26534;-74
2022/04/23 08:23:10;;;;;;;4.30;3.90;;;;;;;;;;737113;80;26542;-75
2022/04/23 08:27:20;;;;;;;4.43;4.03;;;;;;;;;;775222;75;26505;-74
2022/04/23 08:31:05;;;;;;;4.20;3.17;;;;;;;;;;780632;76;26861;-73
2022/04/23 08:32:11;;;;;;;4.13;2.87;;;;;;;;;;780657;76;26439;-76
2022/04/23 08:33:17;;;;;;;6.60;3.13;;;;;;;;;;780421;76;26453;-73
2022/04/23 08:36:36;;;;;;;3.20;2.83;;;;;;;;;;726278;80;27011;-72
2022/04/23 08:37:37;;;;;;;4.40;3.00;;;;;;;;;;713665;83;26601;-74
2022/04/23 08:38:41;;;;;;;3.37;2.30;;;;;;;;;;701099;84;26563;-71
2022/04/23 08:39:56;;;;;;;2.97;2.67;;;;;;;;;;700841;84;26578;-73
2022/04/23 08:41:04;;;;;;;2.83;2.60;;;;;;;;;;701032;83;26546;-73
2022/04/23 08:42:09;;;;;;;3.43;2.30;;;;;;;;;;701208;84;26870;-72
2022/04/23 08:43:14;;;;;;;2.60;2.40;;;;;;;;;;700285;84;26316;-73
2022/04/23 08:50:31;;;;;;;3.80;2.90;;;;;;;;;;763242;76;26303;-72
2022/04/23 08:51:40;;;;;;;3.33;2.70;;;;;;;;;;764951;77;26953;-76
2022/04/23 08:52:46;;;;;;;4.47;3.40;;;;;;;;;;751063;79;26743;-74
2022/04/23 08:58:01;;;;;;;4.23;3.40;;;;;;;;;;763897;77;26466;-74
2022/04/23 08:59:10;;;;;;;3.30;3.00;;;;;;;;;;766244;77;26587;-74
2022/04/23 09:00:12;;;;;;;2.40;2.30;;;;;;;;;;765596;77;26573;-76
2022/04/23 09:01:18;;;;;;;5.93;2.80;;;;;;;;;;759323;77;26498;-72
2022/04/23 09:02:26;;;;;;;2.60;2.23;;;;;;;;;;763364;77;27032;-75
2022/04/23 09:07:26;;;;;;;2.60;2.40;;;;;;;;;;725338;80;26545;-76
2022/04/23 09:08:29;;;;;;;4.47;3.00;;;;;;;;;;738940;80;26477;-74
2022/04/23 09:09:32;;;;;;;3.77;3.00;;;;;;;;;;733300;80;27042;-73
2022/04/23 09:10:47;;;;;;;3.30;3.00;;;;;;;;;;723277;81;26536;-73
2022/04/23 09:11:51;;;;;;;3.57;3.07;;;;;;;;;;740025;80;26538;-75
2022/04/23 09:12:58;;;;;;;3.77;2.80;;;;;;;;;;738809;80;27045;-75
2022/04/23 09:25:31;;;;;;;3.63;2.93;;;;;;;;;;726508;81;26458;-75
2022/04/23 09:26:42;;;;;;;3.70;3.00;;;;;;;;;;731721;80;27042;-74
2022/04/23 09:27:48;;;;;;;3.40;3.10;;;;;;;;;;714119;82;26583;-74
2022/04/23 09:28:51;;;;;;;3.30;3.00;;;;;;;;;;737278;80;26529;-75
2022/04/23 09:30:02;;;;;;;3.17;2.90;;;;;;;;;;737885;80;26575;-73
2022/04/23 09:31:06;;;;;;;3.97;2.90;;;;;;;;;;737411;80;26528;-75
2022/04/23 09:32:20;;;;;;;2.70;2.50;;;;;;;;;;737015;80;26502;-74
2022/04/23 09:35:25;;;;;;;2.90;2.63;;;;;;;;;;737389;80;26367;-74
2022/04/23 09:36:32;;;;;;;2.30;2.20;;;;;;;;;;749884;79;26483;-76
2022/04/23 09:39:01;;;;;;;3.00;2.80;;;;;;;;;;750879;79;26542;-75
2022/04/23 09:40:10;;;;;;;3.33;2.63;;;;;;;;;;751171;79;26495;-73
2022/04/23 09:41:16;;;;;;;3.80;2.73;;;;;;;;;;752069;76;26284;-74
2022/04/23 09:49:09;;;;;;;2.80;2.60;;;;;;;;;;741425;79;26642;-75
2022/04/23 09:50:16;;;;;;;2.60;2.40;;;;;;;;;;754561;78;26829;-75
2022/04/23 09:51:24;;;;;;;2.87;2.60;;;;;;;;;;789240;74;26481;-74
2022/04/23 09:52:32;;;;;;;3.40;2.40;;;;;;;;;;789421;75;26238;-75
2022/04/23 09:57:04;;;;;;;3.63;3.00;;;;;;;;;;750461;77;26544;-75
2022/04/23 09:58:08;;;;;;;3.67;2.70;;;;;;;;;;790421;75;26523;-77
2022/04/23 09:59:12;;;;;;;5.00;2.40;;;;;;;;;;790410;75;26396;-76
2022/04/23 10:00:15;;;;;;;2.63;2.43;;;;;;;;;;790478;75;26356;-76
2022/04/23 10:01:22;;;;;;;3.00;2.80;;;;;;;;;;784880;75;26456;-76
2022/04/23 10:02:27;;;;;;;3.70;2.57;;;;;;;;;;790147;75;26467;-75
2022/04/23 10:05:22;;;;;;;2.90;2.70;;;;;;;;;;738894;80;26500;-75
2022/04/23 10:06:27;;;;;;;2.63;2.47;;;;;;;;;;756456;78;26483;-77
2022/04/23 10:07:34;;;;;;;3.10;2.87;;;;;;;;;;743911;79;26502;-75
2022/04/23 10:08:44;;;;;;;4.43;2.80;;;;;;;;;;756558;78;27027;-74
2022/04/23 10:09:59;;;;;;;4.40;2.80;;;;;;;;;;734618;80;26667;-76
2022/04/23 10:11:23;;;;;;;3.33;3.03;;;;;;;;;;743483;79;26654;-74
2022/04/23 10:12:40;;;;;;;4.90;2.87;;;;;;;;;;757277;78;26637;-72
2022/04/23 10:14:14;;;;;;;4.60;3.00;;;;;;;26.68;100.00;123554.15;745414;77;26795;-74
2022/04/23 10:15:32;;;;;;;3.40;3.10;;;;;;;;;;743389;79;26668;-75
2022/04/23 10:16:42;;;;;;;3.63;3.33;;;;;;;;;;756113;78;26669;-74
2022/04/23 10:18:15;;;;;;;4.97;3.40;;;;;;;;;;743433;79;26784;-74
2022/04/23 10:19:36;;;;;;;3.67;3.37;;;;;;;;;;743726;78;26723;-73
2022/04/23 10:21:07;;;;;;;31.00;28.37;;;;;;;;;;742640;79;26849;-74
2022/04/23 10:35:33;;;;;;;45.30;41.60;;;;;;;;;;811907;72;27007;-73
2022/04/23 10:36:39;;;;;;;41.60;38.03;;;;;;;;;;808477;73;26900;-75
2022/04/23 10:37:45;;;;;;;49.10;45.00;;;;;;;;;;808435;73;26907;-77
2022/04/23 10:38:55;;;;;;;50.27;45.83;;;;;;;;;;808497;73;27043;-76
2022/04/23 10:39:59;;;;;;;53.83;49.20;;;;;;;;;;805068;73;26906;-76
2022/04/23 10:41:05;;;;;;;44.13;40.43;;;;;;;;;;808478;73;26973;-73
2022/04/23 10:47:36;;;;;;;28.03;25.67;;;;;;;;;;776824;75;26914;-76
2022/04/23 10:48:45;;;;;;;32.87;30.20;;;;;;;;;;775799;76;26914;-76